createdAt,value
2019-05-22T00:00:37.725Z,99.90
2019-05-22T00:01:46.929Z,99.90
2019-05-22T00:02:52.024Z,99.90
2019-05-22T00:04:00.530Z,99.90
2019-05-22T00:05:24.353Z,99.90
2019-05-22T00:06:34.687Z,99.90
2019-05-22T00:07:39.473Z,99.90
2019-05-22T00:08:44.834Z,99.90
2019-05-22T00:09:50.817Z,99.90
2019-05-22T00:10:57.758Z,99.90
2019-05-22T00:12:03.530Z,99.90
2019-05-22T00:13:10.573Z,99.90
2019-05-22T00:14:15.561Z,99.90
2019-05-22T00:15:24.797Z,99.90
2019-05-22T00:16:30.769Z,99.90
2019-05-22T00:17:38.178Z,99.90
2019-05-22T00:18:43.639Z,99.90
2019-05-22T00:19:50.017Z,99.90
2019-05-22T00:20:57.019Z,99.90
2019-05-22T00:22:10.975Z,99.90
2019-05-22T00:23:17.505Z,99.90
2019-05-22T00:24:23.592Z,99.90
2019-05-22T00:25:33.113Z,99.90
2019-05-22T00:26:37.380Z,99.90
2019-05-22T00:27:43.662Z,99.90
2019-05-22T00:28:50.123Z,99.90
2019-05-22T00:29:55.879Z,99.90
2019-05-22T00:31:01.861Z,99.90
2019-05-22T00:32:07.982Z,99.90
2019-05-22T00:33:13.069Z,99.90
2019-05-22T00:34:18.121Z,99.90
2019-05-22T00:35:24.886Z,99.90
2019-05-22T00:36:31.309Z,99.90
2019-05-22T00:37:37.595Z,99.90
2019-05-22T00:38:43.437Z,98.80
2019-05-22T00:39:49.937Z,98.90
2019-05-22T00:41:03.183Z,99.50
2019-05-22T00:42:11.870Z,99.90
2019-05-22T00:43:18.521Z,99.50
2019-05-22T00:44:22.976Z,99.50
2019-05-22T00:45:29.447Z,99.90
2019-05-22T00:46:34.125Z,99.70
2019-05-22T00:47:39.652Z,98.70
2019-05-22T00:48:46.178Z,98.90
2019-05-22T00:49:55.191Z,98.90
2019-05-22T00:51:13.079Z,99.60
2019-05-22T00:52:45.112Z,98.50
2019-05-22T00:54:09.425Z,98.80
2019-05-22T00:55:27.811Z,99.00
2019-05-22T00:56:54.141Z,99.60
2019-05-22T00:58:24.280Z,99.00
2019-05-22T00:59:34.128Z,98.90
2019-05-22T01:00:45.452Z,98.90
2019-05-22T01:01:56.175Z,99.20
2019-05-22T01:03:03.434Z,99.00
2019-05-22T01:04:11.401Z,98.80
2019-05-22T01:05:19.920Z,99.40
2019-05-22T01:06:27.144Z,98.90
2019-05-22T01:07:42.506Z,99.20
2019-05-22T01:08:49.008Z,99.20
2019-05-22T01:09:56.962Z,99.60
2019-05-22T01:11:02.985Z,99.70
2019-05-22T01:12:11.129Z,99.90
2019-05-22T01:13:18.424Z,99.70
2019-05-22T01:14:24.314Z,99.60
2019-05-22T01:15:29.047Z,99.90
2019-05-22T01:16:35.248Z,99.90
2019-05-22T01:17:41.594Z,99.40
2019-05-22T01:18:48.203Z,99.80
2019-05-22T01:19:54.439Z,99.90
2019-05-22T01:21:01.339Z,98.90
2019-05-22T01:22:06.418Z,99.80
2019-05-22T01:23:14.117Z,99.20
2019-05-22T01:24:18.489Z,99.70
2019-05-22T01:25:25.053Z,97.70
2019-05-22T01:26:29.656Z,98.50
2019-05-22T01:27:37.075Z,98.20
2019-05-22T01:28:43.083Z,98.90
2019-05-22T01:29:50.822Z,97.60
2019-05-22T01:31:10.784Z,97.50
2019-05-22T01:32:21.647Z,97.30
2019-05-22T01:33:31.010Z,97.90
2019-05-22T01:34:36.941Z,97.80
2019-05-22T01:35:44.479Z,97.60
2019-05-22T01:36:53.845Z,97.50
2019-05-22T01:37:59.813Z,98.50
2019-05-22T01:39:36.137Z,97.60
2019-05-22T01:41:06.809Z,98.00
2019-05-22T01:42:14.906Z,97.80
2019-05-22T01:43:23.638Z,97.50
2019-05-22T01:44:30.777Z,98.00
2019-05-22T01:45:36.087Z,97.70
2019-05-22T01:46:45.099Z,98.50
2019-05-22T01:47:54.944Z,98.10
2019-05-22T01:49:03.994Z,99.00
2019-05-22T01:50:13.949Z,97.80
2019-05-22T01:51:20.170Z,98.20
2019-05-22T01:52:26.245Z,98.30
2019-05-22T01:53:36.594Z,96.90
2019-05-22T01:54:43.056Z,97.30
2019-05-22T01:55:48.674Z,97.00
2019-05-22T01:57:04.260Z,98.10
2019-05-22T01:58:10.614Z,97.30
2019-05-22T01:59:15.933Z,97.80
2019-05-22T02:00:20.578Z,97.60
2019-05-22T02:01:27.658Z,98.00
2019-05-22T02:02:33.894Z,98.40
2019-05-22T02:03:39.194Z,98.40
2019-05-22T02:04:45.380Z,98.40
2019-05-22T02:05:50.363Z,99.40
2019-05-22T02:06:55.362Z,98.20
2019-05-22T02:08:00.401Z,98.80
2019-05-22T02:09:30.761Z,98.10
2019-05-22T02:10:39.131Z,97.40
2019-05-22T02:11:46.275Z,98.50
2019-05-22T02:12:55.471Z,97.80
2019-05-22T02:14:14.599Z,98.10
2019-05-22T02:15:20.176Z,97.60
2019-05-22T02:16:25.963Z,98.00
2019-05-22T02:17:35.651Z,97.30
2019-05-22T02:18:43.618Z,98.30
2019-05-22T02:19:50.677Z,97.40
2019-05-22T02:20:56.080Z,97.50
2019-05-22T02:22:02.310Z,97.80
2019-05-22T02:23:08.702Z,98.30
2019-05-22T02:24:14.604Z,98.00
2019-05-22T02:25:20.908Z,98.70
2019-05-22T02:26:26.014Z,98.50
2019-05-22T02:27:31.790Z,98.70
2019-05-22T02:28:39.442Z,98.20
2019-05-22T02:29:44.708Z,97.60
2019-05-22T02:30:50.197Z,97.80
2019-05-22T02:31:58.026Z,97.90
2019-05-22T02:33:05.248Z,98.90
2019-05-22T02:34:10.633Z,97.70
2019-05-22T02:35:16.790Z,97.90
2019-05-22T02:36:21.747Z,99.40
2019-05-22T02:37:27.607Z,97.40
2019-05-22T02:38:32.567Z,97.40
2019-05-22T02:39:38.280Z,97.90
2019-05-22T02:40:43.924Z,97.90
2019-05-22T02:41:53.595Z,98.00
2019-05-22T02:42:58.600Z,98.80
2019-05-22T02:44:03.945Z,98.30
2019-05-22T02:45:09.244Z,98.60
2019-05-22T02:46:14.315Z,98.60
2019-05-22T02:47:21.457Z,99.50
2019-05-22T02:48:28.541Z,99.90
2019-05-22T02:49:35.969Z,99.90
2019-05-22T02:50:42.474Z,98.30
2019-05-22T02:51:48.536Z,98.40
2019-05-22T02:52:54.607Z,98.00
2019-05-22T02:54:01.897Z,98.50
2019-05-22T02:55:07.359Z,97.50
2019-05-22T02:56:12.384Z,98.90
2019-05-22T02:57:17.653Z,97.80
2019-05-22T02:58:22.009Z,97.70
2019-05-22T02:59:28.086Z,97.90
2019-05-22T03:00:41.645Z,98.30
2019-05-22T03:01:47.560Z,98.90
2019-05-22T03:02:56.252Z,98.80
2019-05-22T03:04:01.432Z,98.50
2019-05-22T03:05:11.098Z,99.10
2019-05-22T03:06:16.283Z,99.50
2019-05-22T03:07:42.121Z,98.90
2019-05-22T03:09:15.980Z,99.70
2019-05-22T03:10:23.765Z,99.90
2019-05-22T03:11:30.006Z,97.70
2019-05-22T03:12:38.566Z,97.80
2019-05-22T03:13:59.594Z,98.20
2019-05-22T03:15:08.034Z,98.30
2019-05-22T03:16:14.003Z,98.30
2019-05-22T03:17:28.099Z,98.20
2019-05-22T03:18:34.394Z,98.60
2019-05-22T03:19:44.386Z,98.80
2019-05-22T03:20:50.538Z,99.00
2019-05-22T03:21:55.746Z,99.10
2019-05-22T03:23:35.710Z,99.40
2019-05-22T03:24:41.817Z,99.30
2019-05-22T03:25:47.750Z,99.30
2019-05-22T03:26:54.614Z,99.00
2019-05-22T03:27:59.983Z,98.90
2019-05-22T03:29:07.562Z,98.60
2019-05-22T03:30:27.607Z,98.30
2019-05-22T03:31:35.219Z,98.10
2019-05-22T03:32:43.546Z,98.70
2019-05-22T03:33:47.613Z,99.20
2019-05-22T03:34:53.415Z,99.60
2019-05-22T03:36:10.962Z,99.70
2019-05-22T03:37:15.740Z,99.90
2019-05-22T03:38:23.600Z,99.90
2019-05-22T03:39:27.993Z,99.60
2019-05-22T03:40:32.907Z,99.40
2019-05-22T03:41:39.412Z,99.40
2019-05-22T03:42:44.686Z,99.90
2019-05-22T03:43:50.935Z,99.90
2019-05-22T03:44:57.261Z,99.40
2019-05-22T03:46:08.392Z,99.30
2019-05-22T03:47:14.513Z,99.50
2019-05-22T03:48:21.381Z,99.80
2019-05-22T03:49:30.434Z,99.70
2019-05-22T03:50:33.785Z,98.80
2019-05-22T03:51:39.548Z,99.90
2019-05-22T03:52:44.103Z,98.80
2019-05-22T03:53:50.501Z,99.80
2019-05-22T03:55:14.136Z,99.90
2019-05-22T03:56:20.516Z,98.80
2019-05-22T03:57:25.748Z,99.20
2019-05-22T03:58:31.622Z,98.50
2019-05-22T03:59:38.510Z,98.70
2019-05-22T04:00:45.884Z,98.80
2019-05-22T04:01:51.302Z,97.80
2019-05-22T04:02:57.369Z,99.40
2019-05-22T04:04:05.672Z,98.70
2019-05-22T04:05:13.581Z,97.70
2019-05-22T04:06:19.871Z,99.40
2019-05-22T04:07:26.797Z,97.90
2019-05-22T04:08:32.918Z,98.50
2019-05-22T04:09:39.993Z,98.50
2019-05-22T04:11:05.286Z,97.20
2019-05-22T04:12:11.136Z,96.50
2019-05-22T04:13:16.937Z,98.10
2019-05-22T04:14:25.117Z,97.10
2019-05-22T04:15:29.702Z,96.20
2019-05-22T04:16:35.554Z,96.70
2019-05-22T04:17:42.588Z,98.20
2019-05-22T04:18:47.973Z,98.10
2019-05-22T04:19:52.366Z,98.30
2019-05-22T04:20:59.229Z,98.00
2019-05-22T04:22:03.841Z,97.50
2019-05-22T04:23:10.546Z,98.20
2019-05-22T04:24:15.782Z,96.10
2019-05-22T04:25:20.973Z,96.20
2019-05-22T04:26:26.597Z,96.60
2019-05-22T04:27:32.418Z,98.30
2019-05-22T04:28:38.576Z,96.80
2019-05-22T04:29:43.488Z,97.10
2019-05-22T04:30:47.906Z,97.50
2019-05-22T04:32:15.725Z,96.80
2019-05-22T04:33:20.788Z,97.40
2019-05-22T04:34:25.902Z,97.20
2019-05-22T04:35:31.685Z,97.20
2019-05-22T04:36:39.736Z,97.40
2019-05-22T04:37:46.811Z,97.70
2019-05-22T04:38:52.881Z,97.90
2019-05-22T04:40:35.045Z,98.10
2019-05-22T04:41:41.257Z,98.20
2019-05-22T04:42:45.611Z,98.60
2019-05-22T04:43:50.748Z,98.80
2019-05-22T04:45:13.192Z,98.90
2019-05-22T04:46:19.029Z,98.80
2019-05-22T04:47:23.720Z,98.60
2019-05-22T04:48:29.805Z,98.60
2019-05-22T04:49:34.672Z,98.30
2019-05-22T04:50:39.734Z,98.30
2019-05-22T04:51:44.861Z,98.40
2019-05-22T04:52:52.563Z,98.50
2019-05-22T04:53:58.268Z,98.70
2019-05-22T04:55:04.137Z,98.60
2019-05-22T04:56:08.631Z,98.70
2019-05-22T04:57:13.796Z,98.70
2019-05-22T04:58:24.291Z,98.70
2019-05-22T04:59:30.237Z,98.60
2019-05-22T05:00:35.318Z,98.70
2019-05-22T05:01:40.677Z,98.70
2019-05-22T05:02:45.499Z,98.80
2019-05-22T05:03:51.557Z,98.80
2019-05-22T05:04:57.235Z,98.90
2019-05-22T05:06:06.681Z,99.00
2019-05-22T05:07:09.382Z,99.00
2019-05-22T05:08:15.737Z,99.00
2019-05-22T05:09:20.618Z,98.90
2019-05-22T05:10:26.906Z,98.90
2019-05-22T05:11:31.441Z,98.80
2019-05-22T05:12:40.461Z,98.80
2019-05-22T05:13:44.940Z,98.90
2019-05-22T05:14:49.830Z,99.00
2019-05-22T05:15:54.282Z,99.00
2019-05-22T05:16:59.439Z,99.00
2019-05-22T05:18:19.902Z,99.10
2019-05-22T05:19:16.051Z,99.00
2019-05-22T05:20:22.784Z,99.10
2019-05-22T05:21:29.576Z,99.10
2019-05-22T05:22:44.988Z,99.00
2019-05-22T05:23:50.089Z,98.80
2019-05-22T05:24:55.846Z,98.70
2019-05-22T05:26:03.655Z,98.70
2019-05-22T05:27:08.287Z,98.70
2019-05-22T05:28:14.565Z,98.60
2019-05-22T05:29:30.252Z,98.90
2019-05-22T05:30:36.404Z,98.80
2019-05-22T05:31:41.602Z,98.40
2019-05-22T05:32:48.901Z,98.30
2019-05-22T05:34:26.091Z,98.40
2019-05-22T05:35:32.745Z,98.60
2019-05-22T05:37:54.100Z,98.70
2019-05-22T05:39:00.819Z,98.70
2019-05-22T05:40:30.197Z,98.60
2019-05-22T05:41:35.678Z,98.80
2019-05-22T05:42:40.807Z,98.50
2019-05-22T05:43:45.314Z,98.50
2019-05-22T05:44:50.396Z,98.40
2019-05-22T05:45:54.824Z,98.40
2019-05-22T05:46:59.743Z,98.00
2019-05-22T05:48:08.002Z,97.90
2019-05-22T05:49:14.388Z,97.80
2019-05-22T05:50:20.225Z,97.70
2019-05-22T05:51:28.037Z,97.60
2019-05-22T05:52:33.736Z,97.30
2019-05-22T05:53:57.151Z,97.40
2019-05-22T05:55:03.145Z,97.40
2019-05-22T05:56:14.977Z,97.20
2019-05-22T05:58:08.258Z,97.20
2019-05-22T05:59:16.307Z,97.10
2019-05-22T06:00:22.952Z,96.90
2019-05-22T06:01:37.122Z,96.80
2019-05-22T06:02:55.712Z,96.50
2019-05-22T06:03:50.127Z,96.50
2019-05-22T06:04:55.243Z,96.30
2019-05-22T06:06:01.632Z,96.10
2019-05-22T06:07:19.179Z,96.10
2019-05-22T06:08:24.261Z,96.10
2019-05-22T06:09:30.744Z,95.90
2019-05-22T06:11:27.642Z,95.70
2019-05-22T06:12:32.797Z,95.60
2019-05-22T06:13:39.319Z,95.20
2019-05-22T06:14:47.468Z,95.00
2019-05-22T06:16:56.102Z,94.80
2019-05-22T06:18:34.969Z,94.60
2019-05-22T06:19:43.158Z,94.50
2019-05-22T06:21:02.749Z,94.10
2019-05-22T06:21:58.686Z,94.00
2019-05-22T06:23:48.391Z,93.80
2019-05-22T06:25:04.829Z,93.70
2019-05-22T06:26:11.558Z,93.30
2019-05-22T06:27:42.642Z,92.80
2019-05-22T06:28:47.159Z,92.50
2019-05-22T06:29:59.929Z,91.90
2019-05-22T06:31:05.571Z,91.60
2019-05-22T06:32:55.645Z,91.60
2019-05-22T06:34:00.870Z,91.50
2019-05-22T06:35:05.380Z,91.40
2019-05-22T06:36:19.801Z,91.10
2019-05-22T06:37:34.687Z,91.00
2019-05-22T06:39:01.263Z,91.20
2019-05-22T06:40:07.105Z,91.30
2019-05-22T06:41:12.955Z,91.20
2019-05-22T06:42:17.992Z,90.90
2019-05-22T06:44:40.829Z,90.70
2019-05-22T06:45:46.265Z,91.00
2019-05-22T06:46:50.742Z,91.20
2019-05-22T06:47:55.714Z,91.30
2019-05-22T06:49:04.821Z,91.30
2019-05-22T06:50:10.705Z,91.30
2019-05-22T06:51:19.722Z,91.60
2019-05-22T06:52:25.301Z,91.80
2019-05-22T06:53:31.203Z,91.90
2019-05-22T06:54:36.596Z,91.90
2019-05-22T06:55:42.510Z,91.70
2019-05-22T06:56:47.683Z,91.70
2019-05-22T06:57:52.167Z,91.70
2019-05-22T06:58:57.484Z,91.70
2019-05-22T07:00:14.988Z,91.80
2019-05-22T07:01:14.715Z,91.70
2019-05-22T07:02:21.255Z,91.70
2019-05-22T07:03:27.527Z,91.70
2019-05-22T07:04:33.261Z,91.60
2019-05-22T07:05:39.413Z,92.10
2019-05-22T07:06:43.832Z,92.00
2019-05-22T07:07:49.404Z,92.00
2019-05-22T07:08:54.484Z,92.00
2019-05-22T07:09:59.900Z,92.10
2019-05-22T07:11:04.551Z,92.10
2019-05-22T07:12:11.269Z,92.30
2019-05-22T07:13:16.831Z,92.40
2019-05-22T07:14:22.496Z,92.60
2019-05-22T07:15:39.605Z,92.80
2019-05-22T07:16:44.790Z,92.90
2019-05-22T07:17:52.435Z,93.10
2019-05-22T07:18:57.945Z,93.10
2019-05-22T07:20:03.931Z,93.70
2019-05-22T07:21:09.366Z,93.70
2019-05-22T07:22:13.912Z,94.00
2019-05-22T07:23:23.391Z,94.30
2019-05-22T07:24:28.201Z,94.40
2019-05-22T07:25:35.939Z,94.60
2019-05-22T07:26:41.278Z,94.70
2019-05-22T07:27:46.836Z,94.60
2019-05-22T07:28:51.968Z,94.30
2019-05-22T07:29:57.513Z,93.90
2019-05-22T07:31:04.371Z,94.30
2019-05-22T07:32:09.720Z,93.80
2019-05-22T07:33:14.426Z,93.80
2019-05-22T07:34:19.813Z,94.00
2019-05-22T07:35:42.360Z,93.50
2019-05-22T07:36:33.956Z,93.60
2019-05-22T07:37:42.567Z,93.60
2019-05-22T07:38:48.459Z,93.60
2019-05-22T07:39:53.142Z,93.40
2019-05-22T07:40:58.650Z,93.40
2019-05-22T07:42:02.999Z,93.40
2019-05-22T07:43:08.441Z,93.50
2019-05-22T07:44:13.417Z,93.50
2019-05-22T07:45:18.929Z,93.70
2019-05-22T07:46:25.238Z,94.00
2019-05-22T07:47:30.562Z,94.30
2019-05-22T07:48:35.704Z,94.40
2019-05-22T07:49:40.825Z,94.60
2019-05-22T07:50:49.284Z,94.80
2019-05-22T07:52:01.396Z,95.10
2019-05-22T07:53:02.502Z,95.20
2019-05-22T07:54:09.719Z,95.30
2019-05-22T07:55:16.052Z,95.40
2019-05-22T07:56:22.379Z,95.60
2019-05-22T07:57:27.397Z,95.40
2019-05-22T07:58:33.689Z,95.30
2019-05-22T07:59:38.622Z,95.30
2019-05-22T08:00:48.338Z,95.30
2019-05-22T08:01:52.746Z,95.20
2019-05-22T08:02:58.195Z,95.10
2019-05-22T08:04:04.619Z,95.10
2019-05-22T08:05:11.397Z,95.00
2019-05-22T08:06:16.724Z,95.00
2019-05-22T08:07:25.377Z,94.70
2019-05-22T08:08:34.061Z,94.80
2019-05-22T08:09:39.594Z,94.60
2019-05-22T08:10:44.811Z,93.90
2019-05-22T08:11:51.140Z,94.20
2019-05-22T08:12:56.820Z,93.50
2019-05-22T08:14:01.849Z,93.00
2019-05-22T08:15:07.512Z,92.50
2019-05-22T08:16:12.762Z,92.10
2019-05-22T08:17:18.728Z,92.00
2019-05-22T08:18:24.474Z,91.70
2019-05-22T08:19:29.166Z,91.40
2019-05-22T08:20:35.492Z,90.90
2019-05-22T08:21:40.801Z,90.80
2019-05-22T08:22:47.519Z,90.90
2019-05-22T08:23:54.576Z,90.80
2019-05-22T08:25:01.509Z,90.80
2019-05-22T08:26:06.915Z,90.60
2019-05-22T08:27:12.795Z,90.70
2019-05-22T08:28:20.008Z,90.40
2019-05-22T08:29:26.090Z,90.40
2019-05-22T08:30:30.801Z,90.40
2019-05-22T08:31:37.052Z,90.20
2019-05-22T08:32:41.453Z,90.20
2019-05-22T08:33:46.933Z,90.10
2019-05-22T08:34:51.761Z,90.20
2019-05-22T08:35:57.266Z,90.30
2019-05-22T08:37:03.805Z,90.30
2019-05-22T08:38:11.913Z,90.20
2019-05-22T08:39:16.497Z,90.30
2019-05-22T08:40:23.170Z,90.40
2019-05-22T08:41:33.027Z,90.40
2019-05-22T08:42:39.759Z,90.50
2019-05-22T08:44:11.563Z,90.60
2019-05-22T08:44:51.547Z,90.50
2019-05-22T08:45:56.333Z,90.40
2019-05-22T08:47:01.666Z,90.20
2019-05-22T08:48:06.826Z,90.00
2019-05-22T08:49:12.701Z,90.20
2019-05-22T08:50:20.866Z,90.30
2019-05-22T08:51:27.352Z,90.20
2019-05-22T08:52:31.706Z,90.30
2019-05-22T08:53:46.717Z,90.30
2019-05-22T08:54:45.802Z,90.20
2019-05-22T08:55:51.114Z,90.20
2019-05-22T08:56:55.976Z,90.30
2019-05-22T08:58:00.934Z,90.40
2019-05-22T08:59:18.894Z,90.40
2019-05-22T09:00:14.963Z,90.40
2019-05-22T09:01:19.770Z,90.20
2019-05-22T09:02:25.177Z,90.20
2019-05-22T09:03:29.960Z,89.90
2019-05-22T09:04:34.903Z,89.70
2019-05-22T09:05:39.930Z,89.40
2019-05-22T09:06:46.659Z,88.90
2019-05-22T09:07:52.313Z,88.70
2019-05-22T09:08:57.336Z,88.40
2019-05-22T09:10:01.800Z,88.30
2019-05-22T09:11:07.062Z,88.40
2019-05-22T09:12:12.929Z,88.60
2019-05-22T09:13:18.154Z,87.30
2019-05-22T09:14:22.843Z,87.50
2019-05-22T09:15:29.103Z,87.10
2019-05-22T09:16:33.904Z,86.50
2019-05-22T09:17:39.037Z,85.70
2019-05-22T09:18:44.696Z,84.60
2019-05-22T09:19:50.609Z,84.80
2019-05-22T09:20:56.825Z,84.90
2019-05-22T09:22:02.447Z,84.40
2019-05-22T09:23:08.880Z,82.90
2019-05-22T09:24:18.070Z,81.50
2019-05-22T09:25:22.990Z,80.30
2019-05-22T09:26:27.983Z,80.10
2019-05-22T09:27:32.532Z,79.30
2019-05-22T09:28:37.498Z,79.20
2019-05-22T09:29:42.371Z,79.20
2019-05-22T09:30:47.300Z,79.00
2019-05-22T09:31:51.888Z,79.30
2019-05-22T09:32:57.548Z,78.60
2019-05-22T09:34:02.382Z,79.00
2019-05-22T09:35:08.128Z,78.30
2019-05-22T09:36:13.075Z,78.00
2019-05-22T09:37:18.586Z,77.30
2019-05-22T09:38:23.990Z,77.20
2019-05-22T09:39:29.256Z,77.20
2019-05-22T09:40:34.762Z,76.40
2019-05-22T09:41:41.132Z,76.00
2019-05-22T09:42:45.476Z,73.50
2019-05-22T09:43:50.709Z,74.00
2019-05-22T09:44:55.296Z,72.80
2019-05-22T09:46:00.286Z,72.80
2019-05-22T09:47:05.310Z,72.80
2019-05-22T09:48:11.657Z,72.30
2019-05-22T09:49:16.569Z,72.40
2019-05-22T09:50:24.358Z,72.20
2019-05-22T09:51:28.859Z,72.40
2019-05-22T09:52:34.498Z,72.60
2019-05-22T09:53:40.993Z,72.40
2019-05-22T09:54:46.603Z,71.20
2019-05-22T09:55:51.861Z,70.40
2019-05-22T09:56:56.942Z,70.40
2019-05-22T09:58:01.645Z,68.50
2019-05-22T09:59:06.790Z,69.60
2019-05-22T10:00:12.393Z,69.20
2019-05-22T10:01:18.066Z,70.00
2019-05-22T10:02:23.021Z,68.40
2019-05-22T10:03:28.239Z,68.60
2019-05-22T10:04:32.709Z,68.90
2019-05-22T10:05:38.210Z,67.90
2019-05-22T10:06:42.632Z,68.60
2019-05-22T10:08:00.088Z,68.40
2019-05-22T10:08:53.665Z,68.00
2019-05-22T10:09:58.669Z,67.20
2019-05-22T10:11:03.811Z,67.20
2019-05-22T10:12:10.580Z,66.60
2019-05-22T10:13:15.889Z,67.00
2019-05-22T10:14:21.213Z,67.40
2019-05-22T10:15:27.501Z,68.00
2019-05-22T10:16:32.714Z,69.20
2019-05-22T10:17:39.617Z,69.40
2019-05-22T10:18:44.580Z,69.60
2019-05-22T10:19:49.213Z,70.30
2019-05-22T10:20:55.723Z,70.10
2019-05-22T10:22:01.957Z,68.30
2019-05-22T10:23:15.439Z,67.70
2019-05-22T10:24:14.922Z,68.00
2019-05-22T10:25:20.375Z,66.40
2019-05-22T10:26:25.337Z,65.30
2019-05-22T10:27:30.534Z,64.80
2019-05-22T10:28:35.202Z,64.50
2019-05-22T10:29:40.182Z,64.10
2019-05-22T10:30:44.849Z,64.50
2019-05-22T10:31:49.910Z,64.20
2019-05-22T10:32:54.464Z,63.50
2019-05-22T10:34:00.593Z,63.10
2019-05-22T10:35:08.596Z,63.00
2019-05-22T10:36:14.392Z,62.80
2019-05-22T10:37:20.521Z,62.10
2019-05-22T10:38:25.838Z,62.40
2019-05-22T10:39:30.876Z,62.80
2019-05-22T10:40:36.044Z,62.90
2019-05-22T10:41:41.062Z,62.60
2019-05-22T10:42:47.184Z,63.30
2019-05-22T10:43:52.339Z,62.50
2019-05-22T10:44:57.428Z,63.10
2019-05-22T10:46:01.891Z,61.40
2019-05-22T10:47:08.302Z,61.70
2019-05-22T10:48:12.756Z,61.60
2019-05-22T10:49:17.823Z,61.60
2019-05-22T10:50:24.031Z,61.60
2019-05-22T10:51:29.555Z,62.10
2019-05-22T10:52:34.531Z,62.30
2019-05-22T10:53:40.306Z,63.30
2019-05-22T10:54:44.691Z,63.60
2019-05-22T10:55:51.033Z,64.00
2019-05-22T10:56:55.646Z,63.60
2019-05-22T10:58:01.011Z,63.40
2019-05-22T10:59:07.184Z,63.00
2019-05-22T11:00:15.232Z,63.30
2019-05-22T11:01:19.718Z,63.70
2019-05-22T11:02:25.039Z,64.10
2019-05-22T11:03:29.532Z,64.30
2019-05-22T11:04:34.644Z,65.10
2019-05-22T11:05:40.695Z,65.50
2019-05-22T11:06:45.884Z,66.10
2019-05-22T11:07:51.549Z,66.50
2019-05-22T11:08:57.620Z,65.20
2019-05-22T11:10:02.099Z,66.40
2019-05-22T11:11:08.115Z,64.30
2019-05-22T11:12:13.936Z,64.20
2019-05-22T11:13:19.675Z,64.40
2019-05-22T11:14:24.495Z,64.30
2019-05-22T11:15:31.614Z,63.70
2019-05-22T11:16:36.121Z,62.80
2019-05-22T11:17:41.404Z,61.40
2019-05-22T11:18:45.868Z,62.00
2019-05-22T11:19:50.790Z,61.40
2019-05-22T11:20:55.871Z,62.20
2019-05-22T11:22:00.801Z,63.20
2019-05-22T11:23:06.326Z,62.80
2019-05-22T11:24:11.938Z,61.90
2019-05-22T11:25:17.397Z,62.90
2019-05-22T11:26:22.515Z,61.60
2019-05-22T11:27:26.985Z,63.00
2019-05-22T11:28:33.807Z,64.30
2019-05-22T11:29:38.978Z,63.50
2019-05-22T11:30:44.076Z,63.30
2019-05-22T11:31:48.823Z,62.60
2019-05-22T11:32:55.268Z,62.20
2019-05-22T11:33:59.727Z,61.00
2019-05-22T11:35:08.283Z,61.20
2019-05-22T11:36:14.476Z,61.80
2019-05-22T11:37:20.802Z,61.50
2019-05-22T11:38:25.394Z,62.00
2019-05-22T11:39:39.279Z,63.00
2019-05-22T11:40:37.916Z,64.00
2019-05-22T11:41:43.052Z,61.10
2019-05-22T11:42:50.340Z,61.30
2019-05-22T11:43:55.298Z,60.70
2019-05-22T11:44:59.895Z,60.90
2019-05-22T11:46:05.452Z,62.00
2019-05-22T11:47:12.107Z,61.90
2019-05-22T11:48:17.960Z,62.20
2019-05-22T11:49:22.499Z,62.80
2019-05-22T11:50:28.459Z,62.10
2019-05-22T11:51:32.814Z,62.80
2019-05-22T11:52:37.994Z,62.90
2019-05-22T11:53:44.672Z,62.90
2019-05-22T11:54:50.224Z,61.90
2019-05-22T11:56:06.327Z,61.40
2019-05-22T11:57:13.163Z,61.30
2019-05-22T11:58:18.482Z,59.20
2019-05-22T11:59:25.559Z,60.10
2019-05-22T12:00:30.798Z,60.40
2019-05-22T12:01:35.892Z,59.10
2019-05-22T12:02:41.458Z,57.80
2019-05-22T12:03:46.296Z,58.30
2019-05-22T12:04:51.878Z,56.40
2019-05-22T12:05:56.377Z,56.50
2019-05-22T12:07:01.655Z,56.40
2019-05-22T12:08:06.659Z,56.20
2019-05-22T12:09:14.070Z,56.00
2019-05-22T12:10:20.746Z,56.80
2019-05-22T12:11:26.246Z,56.10
2019-05-22T12:12:34.996Z,57.10
2019-05-22T12:13:37.805Z,56.80
2019-05-22T12:14:42.333Z,56.70
2019-05-22T12:15:47.829Z,57.60
2019-05-22T12:16:54.367Z,58.10
2019-05-22T12:18:00.190Z,59.00
2019-05-22T12:19:16.564Z,59.50
2019-05-22T12:20:15.174Z,59.40
2019-05-22T12:21:19.739Z,58.20
2019-05-22T12:22:24.704Z,58.50
2019-05-22T12:23:29.405Z,58.30
2019-05-22T12:24:37.069Z,58.20
2019-05-22T12:25:40.721Z,58.80
2019-05-22T12:26:47.149Z,58.50
2019-05-22T12:27:52.011Z,58.10
2019-05-22T12:28:58.291Z,58.00
2019-05-22T12:30:03.391Z,58.00
2019-05-22T12:31:08.750Z,57.90
2019-05-22T12:32:14.834Z,58.30
2019-05-22T12:33:20.447Z,59.00
2019-05-22T12:34:25.305Z,58.70
2019-05-22T12:35:31.491Z,58.00
2019-05-22T12:36:36.257Z,57.60
2019-05-22T12:37:42.115Z,57.10
2019-05-22T12:38:46.880Z,56.90
2019-05-22T12:39:55.261Z,56.50
2019-05-22T12:40:59.880Z,56.20
2019-05-22T12:42:06.538Z,57.00
2019-05-22T12:43:11.620Z,55.80
2019-05-22T12:44:17.207Z,56.20
2019-05-22T12:45:26.530Z,55.50
2019-05-22T12:46:33.060Z,56.00
2019-05-22T12:47:38.572Z,56.70
2019-05-22T12:48:46.820Z,56.30
2019-05-22T12:49:52.144Z,57.00
2019-05-22T12:50:58.723Z,56.50
2019-05-22T12:52:05.356Z,57.20
2019-05-22T12:53:12.782Z,56.60
2019-05-22T12:54:17.591Z,56.60
2019-05-22T12:55:23.218Z,57.00
2019-05-22T12:56:28.290Z,57.30
2019-05-22T12:57:33.388Z,57.40
2019-05-22T12:58:38.773Z,55.60
2019-05-22T12:59:46.032Z,54.40
2019-05-22T13:00:52.215Z,54.80
2019-05-22T13:01:59.754Z,55.10
2019-05-22T13:03:04.963Z,56.00
2019-05-22T13:04:10.381Z,56.70
2019-05-22T13:05:15.976Z,56.30
2019-05-22T13:06:21.886Z,56.00
2019-05-22T13:07:27.074Z,55.80
2019-05-22T13:08:32.982Z,54.70
2019-05-22T13:09:38.272Z,55.50
2019-05-22T13:10:43.830Z,55.90
2019-05-22T13:11:49.830Z,55.70
2019-05-22T13:13:14.151Z,54.30
2019-05-22T13:14:19.826Z,53.60
2019-05-22T13:15:25.859Z,53.50
2019-05-22T13:16:32.010Z,52.90
2019-05-22T13:17:38.418Z,51.70
2019-05-22T13:18:43.987Z,51.80
2019-05-22T13:19:50.526Z,52.70
2019-05-22T13:20:55.768Z,51.10
2019-05-22T13:22:08.118Z,52.20
2019-05-22T13:23:13.861Z,51.70
2019-05-22T13:24:22.496Z,51.90
2019-05-22T13:25:32.792Z,52.40
2019-05-22T13:26:39.418Z,52.60
2019-05-22T13:27:45.288Z,53.30
2019-05-22T13:28:50.647Z,51.90
2019-05-22T13:29:59.278Z,52.30
2019-05-22T13:31:05.236Z,51.50
2019-05-22T13:32:10.332Z,52.30
2019-05-22T13:33:37.415Z,52.60
2019-05-22T13:34:44.026Z,52.90
2019-05-22T13:35:50.718Z,51.00
2019-05-22T13:36:57.815Z,50.40
2019-05-22T13:38:04.653Z,50.20
2019-05-22T13:39:11.460Z,50.00
2019-05-22T13:40:27.487Z,49.70
2019-05-22T13:41:25.930Z,49.60
2019-05-22T13:42:32.471Z,48.90
2019-05-22T13:43:37.469Z,48.10
2019-05-22T13:44:43.215Z,48.50
2019-05-22T13:45:48.483Z,49.60
2019-05-22T13:46:53.960Z,47.90
2019-05-22T13:47:58.823Z,49.10
2019-05-22T13:49:05.289Z,49.10
2019-05-22T13:50:11.344Z,48.20
2019-05-22T13:51:16.744Z,48.90
2019-05-22T13:52:22.852Z,48.80
2019-05-22T13:53:29.835Z,49.00
2019-05-22T13:54:54.967Z,49.60
2019-05-22T13:56:00.446Z,50.00
2019-05-22T13:57:06.179Z,49.80
2019-05-22T13:58:12.613Z,50.20
2019-05-22T13:59:17.704Z,50.30
2019-05-22T14:00:23.897Z,50.20
2019-05-22T14:01:28.567Z,50.20
2019-05-22T14:02:34.830Z,51.50
2019-05-22T14:03:40.021Z,51.50
2019-05-22T14:04:45.662Z,49.60
2019-05-22T14:05:53.136Z,49.50
2019-05-22T14:06:59.962Z,50.50
2019-05-22T14:08:05.038Z,50.80
2019-05-22T14:09:14.302Z,51.50
2019-05-22T14:10:19.225Z,50.80
2019-05-22T14:11:24.429Z,50.80
2019-05-22T14:12:30.871Z,50.50
2019-05-22T14:13:36.489Z,50.00
2019-05-22T14:14:42.490Z,51.20
2019-05-22T14:15:54.722Z,51.00
2019-05-22T14:16:54.230Z,50.50
2019-05-22T14:18:00.185Z,50.40
2019-05-22T14:19:05.156Z,50.80
2019-05-22T14:20:12.813Z,50.50
2019-05-22T14:21:17.828Z,51.10
2019-05-22T14:22:23.141Z,52.10
2019-05-22T14:23:27.820Z,52.70
2019-05-22T14:24:33.031Z,51.90
2019-05-22T14:25:38.115Z,51.20
2019-05-22T14:26:43.154Z,51.90
2019-05-22T14:27:48.014Z,52.30
2019-05-22T14:28:54.460Z,51.80
2019-05-22T14:30:00.050Z,51.50
2019-05-22T14:31:05.617Z,52.50